Time;durP1;ratioP1;P1;durP2;ratioP2;P2;SDS_P1;SDS_P2;PMS_P1;PMS_P2;Temp;Humidity;BMP_temperature;BMP_pressure;BME280_temperature;BME280_humidity;BME280_pressure;Samples;Min_cycle;Max_cycle;Signal;HPM_P1;HPM_P2
2023/11/30 00:00:14;;;;;;;9.55;4.45;;;-0.30;99.90;;;;;;5010296;28;20146;-64
2023/11/30 00:02:40;;;;;;;8.68;4.75;;;-0.30;99.90;;;;;;4991370;28;20072;-64
2023/11/30 00:05:07;;;;;;;5.78;4.18;;;-0.30;99.90;;;;;;5009815;28;20128;-64
2023/11/30 00:07:33;;;;;;;7.00;4.57;;;-0.30;99.90;;;;;;5015623;28;20404;-73
2023/11/30 00:09:59;;;;;;;7.10;5.07;;;-0.30;99.90;;;;;;4990239;28;20046;-64
2023/11/30 00:12:25;;;;;;;9.57;5.47;;;-0.40;99.90;;;;;;4972095;28;20397;-73
2023/11/30 00:14:51;;;;;;;9.32;5.25;;;-0.40;99.90;;;;;;4995823;28;20046;-64
2023/11/30 00:17:16;;;;;;;7.78;5.07;;;-0.40;99.90;;;;;;5013193;28;20472;-64
2023/11/30 00:19:42;;;;;;;8.38;5.55;;;-0.30;99.90;;;;;;4989901;28;20045;-64
2023/11/30 00:22:08;;;;;;;7.38;5.32;;;-0.40;99.90;;;;;;4997595;28;20073;-64
2023/11/30 00:24:33;;;;;;;10.68;5.18;;;-0.40;99.90;;;;;;4991205;28;20115;-64
2023/11/30 00:26:59;;;;;;;6.63;4.10;;;-0.30;99.90;;;;;;5009155;28;20046;-64
2023/11/30 00:29:24;;;;;;;6.55;3.80;;;-0.40;99.90;;;;;;5009258;28;20050;-70
2023/11/30 00:31:50;;;;;;;6.22;4.30;;;-0.40;99.90;;;;;;4992868;28;20511;-64
2023/11/30 00:34:16;;;;;;;9.20;4.95;;;-0.40;99.90;;;;;;5009001;28;20393;-69
2023/11/30 00:36:43;;;;;;;10.82;4.72;;;-0.50;99.90;;;;;;4978427;28;20104;-64
2023/11/30 00:39:08;;;;;;;7.55;5.07;;;-0.60;99.90;;;;;;5008912;28;20062;-65
2023/11/30 00:41:34;;;;;;;6.03;4.25;;;-0.50;99.90;;;;;;4980076;28;20066;-78
2023/11/30 00:44:00;;;;;;;8.02;4.75;;;-0.60;99.90;;;;;;5019046;28;20543;-64
2023/11/30 00:46:26;;;;;;;5.82;4.03;;;-0.60;99.90;;;;;;5016813;28;20479;-66
2023/11/30 00:48:51;;;;;;;9.98;4.50;;;-0.70;99.90;;;;;;5007858;28;20052;-64
2023/11/30 00:51:17;;;;;;;8.43;4.82;;;-0.70;99.90;;;;;;5008343;28;20038;-65
2023/11/30 00:53:43;;;;;;;8.27;4.80;;;-0.70;99.90;;;;;;5007090;28;20118;-64
2023/11/30 00:56:11;;;;;;;8.35;4.20;;;-0.80;99.90;;;;;;4972586;28;20042;-70
2023/11/30 00:58:37;;;;;;;7.28;3.63;;;-0.80;99.90;;;;;;4994236;28;20104;-64
2023/11/30 01:01:03;;;;;;;5.78;4.20;;;-0.80;99.90;;;;;;4990499;28;20525;-64
2023/11/30 01:03:29;;;;;;;12.50;4.35;;;-0.90;99.90;;;;;;5026025;28;20052;-64
2023/11/30 01:05:55;;;;;;;16.58;4.45;;;-0.90;99.90;;;;;;5002693;28;20128;-78
2023/11/30 01:08:20;;;;;;;50.00;4.35;;;-1.00;99.90;;;;;;5010676;28;20046;-64
2023/11/30 01:10:46;;;;;;;37.75;4.13;;;-1.00;99.90;;;;;;4994650;28;20491;-70
2023/11/30 01:13:12;;;;;;;50.05;4.20;;;-0.90;99.90;;;;;;4999763;28;20498;-64
2023/11/30 01:15:38;;;;;;;49.08;3.20;;;-0.90;99.90;;;;;;5004238;28;20042;-64
2023/11/30 01:18:04;;;;;;;71.03;3.75;;;-1.00;99.90;;;;;;5008544;28;20479;-73
2023/11/30 01:20:31;;;;;;;14.75;3.22;;;-0.90;99.90;;;;;;5021537;28;20407;-64
2023/11/30 01:22:57;;;;;;;27.77;3.53;;;-0.90;99.90;;;;;;5016703;28;20045;-66
2023/11/30 01:25:23;;;;;;;12.88;2.70;;;-0.90;99.90;;;;;;5017833;28;20446;-63
2023/11/30 01:27:48;;;;;;;16.55;2.65;;;-0.90;99.90;;;;;;5016866;28;20034;-64
2023/11/30 01:30:14;;;;;;;30.98;3.38;;;-0.90;99.90;;;;;;5026300;28;20056;-64
2023/11/30 01:32:40;;;;;;;7.38;2.33;;;-1.00;99.90;;;;;;5004100;28;20045;-64
2023/11/30 01:35:06;;;;;;;19.17;2.72;;;-1.00;99.90;;;;;;4996708;28;20403;-64
2023/11/30 01:37:32;;;;;;;13.70;3.15;;;-1.00;99.90;;;;;;4975967;28;20088;-82
2023/11/30 01:39:57;;;;;;;17.70;3.58;;;-1.00;99.90;;;;;;5019658;28;20499;-64
2023/11/30 01:42:23;;;;;;;26.52;3.25;;;-1.10;99.90;;;;;;4995153;28;20050;-67
2023/11/30 01:44:49;;;;;;;4.75;3.08;;;-1.00;99.90;;;;;;5007759;28;20049;-64
2023/11/30 01:47:16;;;;;;;13.10;2.65;;;-1.10;99.90;;;;;;5002667;28;20041;-79
2023/11/30 01:49:41;;;;;;;18.52;2.33;;;-1.10;99.90;;;;;;5018659;28;20426;-64
2023/11/30 01:52:08;;;;;;;11.07;2.65;;;-1.10;99.90;;;;;;5009351;28;20106;-64
2023/11/30 01:54:34;;;;;;;10.18;2.40;;;-1.20;99.90;;;;;;5008661;28;20415;-64
2023/11/30 01:57:00;;;;;;;11.52;2.92;;;-1.20;99.90;;;;;;5000082;28;20515;-64
2023/11/30 01:59:27;;;;;;;23.10;2.35;;;-1.20;99.90;;;;;;5019268;28;20124;-75
2023/11/30 02:01:53;;;;;;;7.95;2.00;;;-1.30;99.90;;;;;;5018591;28;20053;-64
2023/11/30 02:04:21;;;;;;;5.88;2.00;;;-1.30;99.90;;;;;;5027494;28;20400;-78
2023/11/30 02:06:47;;;;;;;12.45;2.35;;;-1.40;99.90;;;;;;5020155;28;20034;-64
2023/11/30 02:09:13;;;;;;;14.38;2.22;;;-1.40;99.90;;;;;;5022952;28;20073;-64
2023/11/30 02:11:40;;;;;;;8.75;2.30;;;-1.40;99.90;;;;;;5009857;28;20054;-64
2023/11/30 02:14:06;;;;;;;2.17;1.98;;;-1.50;99.90;;;;;;5008368;28;20042;-64
2023/11/30 02:16:32;;;;;;;6.15;2.08;;;-1.40;99.90;;;;;;5001113;28;20093;-65
2023/11/30 02:18:57;;;;;;;6.68;1.95;;;-1.50;99.90;;;;;;5003511;28;20049;-83
2023/11/30 02:21:23;;;;;;;6.60;1.77;;;-1.60;99.90;;;;;;5020832;28;20058;-64
2023/11/30 02:23:50;;;;;;;2.97;1.70;;;-1.50;99.90;;;;;;5018618;28;20480;-65
2023/11/30 02:26:17;;;;;;;9.20;1.77;;;-1.60;99.90;;;;;;4983439;28;20496;-64
2023/11/30 02:28:43;;;;;;;10.40;2.17;;;-1.60;99.90;;;;;;5015883;28;20122;-65
2023/11/30 02:31:09;;;;;;;6.72;1.70;;;-1.60;99.90;;;;;;5006470;28;20057;-64
2023/11/30 02:33:34;;;;;;;6.47;2.17;;;-1.60;99.90;;;;;;4999758;28;20491;-64
2023/11/30 02:36:00;;;;;;;9.85;2.13;;;-1.70;99.90;;;;;;5011985;28;20076;-75
2023/11/30 02:38:26;;;;;;;9.15;1.98;;;-1.80;99.90;;;;;;5026717;28;20087;-64
2023/11/30 02:40:52;;;;;;;2.58;1.77;;;-1.80;99.90;;;;;;5026117;28;20053;-64
2023/11/30 02:43:17;;;;;;;3.22;2.05;;;-1.80;99.90;;;;;;5011604;28;20037;-85
2023/11/30 02:45:43;;;;;;;9.02;2.08;;;-1.80;99.90;;;;;;5026047;28;20561;-64
2023/11/30 02:48:09;;;;;;;4.50;2.45;;;-1.80;99.90;;;;;;5009030;28;20133;-81
2023/11/30 02:50:34;;;;;;;2.65;2.33;;;-1.80;99.90;;;;;;4996063;28;20049;-64
2023/11/30 02:53:00;;;;;;;14.40;2.85;;;-1.80;99.90;;;;;;5020397;28;20041;-65
2023/11/30 02:55:26;;;;;;;13.32;2.63;;;-1.80;99.90;;;;;;5026066;28;20046;-64
2023/11/30 02:57:52;;;;;;;5.55;2.38;;;-1.90;99.90;;;;;;5015175;28;20048;-81
2023/11/30 03:00:18;;;;;;;15.13;2.25;;;-1.80;99.90;;;;;;5028270;28;20495;-64
2023/11/30 03:02:44;;;;;;;4.57;2.10;;;-1.90;99.90;;;;;;5009127;28;20041;-70
2023/11/30 03:05:10;;;;;;;2.13;1.92;;;-1.90;99.90;;;;;;5030806;28;20079;-64
2023/11/30 03:07:36;;;;;;;9.23;1.83;;;-1.90;99.90;;;;;;5020774;28;20040;-64
2023/11/30 03:10:01;;;;;;;10.75;1.65;;;-1.90;99.90;;;;;;5018974;28;20053;-69
2023/11/30 03:12:27;;;;;;;4.03;1.98;;;-2.00;99.90;;;;;;4999007;28;20129;-64
2023/11/30 03:14:53;;;;;;;2.50;2.25;;;-1.90;99.90;;;;;;5025394;28;20096;-64
2023/11/30 03:17:19;;;;;;;6.20;2.03;;;-2.00;99.90;;;;;;5007622;28;20049;-64
2023/11/30 03:19:44;;;;;;;4.65;2.08;;;-2.00;99.90;;;;;;5014724;28;20083;-64
2023/11/30 03:22:10;;;;;;;3.85;1.92;;;-2.00;99.90;;;;;;5009809;28;20051;-64
2023/11/30 03:24:36;;;;;;;5.65;2.38;;;-2.10;99.90;;;;;;5017300;28;20048;-64
2023/11/30 03:27:02;;;;;;;2.30;2.10;;;-2.10;99.90;;;;;;5021494;28;20054;-64
2023/11/30 03:29:27;;;;;;;11.90;2.42;;;-2.10;99.90;;;;;;4981127;28;20053;-77
2023/11/30 03:31:53;;;;;;;3.50;2.20;;;-2.10;99.90;;;;;;5023888;28;20060;-65
2023/11/30 03:34:18;;;;;;;10.68;1.75;;;-2.10;99.90;;;;;;5026308;28;20037;-64
2023/11/30 03:36:44;;;;;;;7.30;2.00;;;-2.10;99.90;;;;;;5022277;28;20067;-72
2023/11/30 03:39:10;;;;;;;8.27;1.98;;;-2.10;99.90;;;;;;5017998;28;20125;-65
2023/11/30 03:41:36;;;;;;;14.98;2.05;;;-2.10;99.90;;;;;;5015633;28;20054;-74
2023/11/30 03:44:01;;;;;;;1.98;1.67;;;-2.10;99.90;;;;;;4970817;28;20056;-64
2023/11/30 03:46:27;;;;;;;16.83;1.95;;;-2.00;99.90;;;;;;5007484;28;20045;-65
2023/11/30 03:48:54;;;;;;;38.17;2.00;;;-2.00;99.90;;;;;;5009038;28;20048;-82
2023/11/30 03:51:20;;;;;;;1.73;1.63;;;-2.10;99.90;;;;;;4993873;28;20081;-74
2023/11/30 03:53:46;;;;;;;22.55;2.05;;;-2.00;99.90;;;;;;4998668;28;20072;-64
2023/11/30 03:56:12;;;;;;;22.42;1.95;;;-2.00;99.90;;;;;;4987551;28;20054;-71
2023/11/30 03:58:38;;;;;;;13.00;1.83;;;-2.00;99.90;;;;;;5014220;28;20073;-64
2023/11/30 04:01:05;;;;;;;35.78;2.22;;;-2.00;99.90;;;;;;4986515;28;20057;-68
2023/11/30 04:03:31;;;;;;;40.67;2.10;;;-2.10;99.90;;;;;;5022425;28;20583;-64
2023/11/30 04:05:57;;;;;;;3.88;1.52;;;-2.00;99.90;;;;;;5021194;28;20132;-77
2023/11/30 04:08:22;;;;;;;22.30;1.85;;;-2.10;99.90;;;;;;4990731;28;20404;-64
2023/11/30 04:10:48;;;;;;;19.13;2.10;;;-2.10;99.90;;;;;;5014368;28;20528;-74
2023/11/30 04:13:14;;;;;;;8.70;1.95;;;-2.10;99.90;;;;;;5020048;28;20046;-76
2023/11/30 04:15:40;;;;;;;4.13;1.63;;;-2.00;99.90;;;;;;4991417;28;20037;-64
2023/11/30 04:18:06;;;;;;;6.78;1.83;;;-2.00;99.90;;;;;;5020100;28;20038;-66
2023/11/30 04:20:31;;;;;;;2.75;2.03;;;-2.00;99.90;;;;;;5009683;28;20440;-64
2023/11/30 04:22:57;;;;;;;10.93;1.67;;;-2.10;99.90;;;;;;5021127;28;20071;-65
2023/11/30 04:25:23;;;;;;;4.85;1.25;;;-2.20;99.90;;;;;;5005710;28;20557;-79
2023/11/30 04:27:48;;;;;;;4.47;1.60;;;-2.10;99.90;;;;;;5022194;28;20042;-71
2023/11/30 04:30:14;;;;;;;1.45;1.17;;;-2.20;99.90;;;;;;5027555;28;20563;-64
2023/11/30 04:32:40;;;;;;;4.00;1.27;;;-2.20;99.90;;;;;;5016910;28;20052;-81
2023/11/30 04:35:06;;;;;;;8.40;1.63;;;-2.20;99.90;;;;;;5006486;28;20057;-64
2023/11/30 04:37:31;;;;;;;3.60;1.50;;;-2.10;99.90;;;;;;5012842;28;20132;-75
2023/11/30 04:39:57;;;;;;;7.53;1.48;;;-2.20;99.90;;;;;;5012175;28;20203;-65
2023/11/30 04:42:23;;;;;;;2.17;1.40;;;-2.20;99.90;;;;;;5012808;28;20048;-73
2023/11/30 04:44:49;;;;;;;1.73;1.63;;;-2.30;99.90;;;;;;5017806;28;20037;-64
2023/11/30 04:47:15;;;;;;;1.83;1.73;;;-2.20;99.90;;;;;;5002161;28;20052;-66
2023/11/30 04:49:41;;;;;;;5.28;1.13;;;-2.20;99.90;;;;;;5008620;28;20054;-68
2023/11/30 04:52:06;;;;;;;1.50;1.40;;;-2.30;99.90;;;;;;5016748;28;20041;-64
2023/11/30 04:54:32;;;;;;;6.07;1.30;;;-2.30;99.90;;;;;;5001390;28;20044;-67
2023/11/30 04:56:58;;;;;;;6.35;1.40;;;-2.20;99.90;;;;;;5014456;28;20034;-64
2023/11/30 04:59:23;;;;;;;1.67;1.58;;;-2.30;99.90;;;;;;5006036;28;20057;-68
2023/11/30 05:01:49;;;;;;;1.10;1.05;;;-2.30;99.90;;;;;;5022963;28;20042;-72
2023/11/30 05:04:15;;;;;;;2.45;1.40;;;-2.30;99.90;;;;;;5008557;28;20057;-64
2023/11/30 05:06:40;;;;;;;2.58;1.20;;;-2.30;99.90;;;;;;5021630;28;20108;-70
2023/11/30 05:09:06;;;;;;;2.30;1.35;;;-2.30;99.90;;;;;;5007140;28;20049;-65
2023/11/30 05:11:32;;;;;;;1.67;1.58;;;-2.30;99.90;;;;;;5008670;28;20132;-73
2023/11/30 05:13:58;;;;;;;1.42;1.42;;;-2.30;99.90;;;;;;5020356;28;20042;-64
2023/11/30 05:16:24;;;;;;;3.42;1.02;;;-2.30;99.90;;;;;;5022758;28;20071;-78
2023/11/30 05:18:50;;;;;;;1.40;1.30;;;-2.30;99.90;;;;;;5006514;28;20147;-65
2023/11/30 05:21:16;;;;;;;1.95;1.60;;;-2.20;99.90;;;;;;4993405;28;20053;-66
2023/11/30 05:23:42;;;;;;;3.38;1.27;;;-2.30;99.90;;;;;;5027762;28;20077;-64
2023/11/30 05:26:07;;;;;;;1.20;1.10;;;-2.30;99.90;;;;;;5014718;28;20079;-71
2023/11/30 05:28:33;;;;;;;9.07;0.93;;;-2.30;99.90;;;;;;5014753;28;20037;-64
2023/11/30 05:30:59;;;;;;;1.13;1.08;;;-2.30;99.90;;;;;;4993051;28;20585;-66
2023/11/30 05:33:29;;;;;;;4.60;1.30;;;-2.40;99.90;;;;;;5011103;28;20037;-65
2023/11/30 05:35:55;;;;;;;7.18;1.23;;;-2.40;99.90;;;;;;5022933;28;20122;-74
2023/11/30 05:38:21;;;;;;;4.43;1.50;;;-2.30;99.90;;;;;;5006338;28;20418;-64
2023/11/30 05:40:47;;;;;;;6.65;1.50;;;-2.40;99.90;;;;;;5014123;28;20053;-76
2023/11/30 05:43:13;;;;;;;2.85;1.33;;;-2.30;99.90;;;;;;4993175;28;20041;-77
2023/11/30 05:45:39;;;;;;;5.85;1.13;;;-2.40;99.90;;;;;;5009678;28;20515;-64
2023/11/30 05:48:05;;;;;;;1.02;1.02;;;-2.40;99.90;;;;;;4994565;28;20077;-68
2023/11/30 05:50:31;;;;;;;9.25;1.08;;;-2.40;99.90;;;;;;5026615;28;20041;-64
2023/11/30 05:52:56;;;;;;;1.33;1.23;;;-2.50;99.90;;;;;;4993592;28;20053;-72
2023/11/30 05:55:22;;;;;;;1.85;1.40;;;-2.40;99.90;;;;;;5014946;28;20526;-64
2023/11/30 05:57:48;;;;;;;7.47;1.30;;;-2.50;99.90;;;;;;5023215;28;20571;-83
2023/11/30 06:00:15;;;;;;;2.03;1.10;;;-2.50;99.90;;;;;;4994357;28;20080;-65
2023/11/30 06:02:41;;;;;;;1.67;1.25;;;-2.50;99.90;;;;;;4991520;28;20053;-76
2023/11/30 06:05:07;;;;;;;1.13;1.10;;;-2.50;99.90;;;;;;4976728;28;20044;-72
2023/11/30 06:07:33;;;;;;;1.13;1.02;;;-2.50;99.90;;;;;;5012929;28;20077;-64
2023/11/30 06:09:59;;;;;;;4.50;1.17;;;-2.50;99.90;;;;;;5019483;28;20054;-74
2023/11/30 06:12:26;;;;;;;4.28;1.10;;;-2.50;99.90;;;;;;4981648;28;20056;-64
2023/11/30 06:14:52;;;;;;;7.22;1.23;;;-2.60;99.90;;;;;;5018401;28;20386;-83
2023/11/30 06:17:17;;;;;;;0.85;0.85;;;-2.60;99.90;;;;;;5016751;28;20073;-65
2023/11/30 06:19:43;;;;;;;1.60;0.98;;;-2.60;99.90;;;;;;5012060;28;20048;-67
2023/11/30 06:22:09;;;;;;;0.85;0.85;;;-2.70;99.90;;;;;;5019963;28;20038;-64
2023/11/30 06:24:35;;;;;;;3.85;0.88;;;-2.70;99.90;;;;;;5003404;28;20049;-73
2023/11/30 06:27:02;;;;;;;0.98;0.98;;;-2.80;99.90;;;;;;4972463;28;20050;-65
2023/11/30 06:29:29;;;;;;;5.30;0.90;;;-2.80;99.90;;;;;;5006365;28;20113;-65
2023/11/30 06:31:59;;;;;;;3.97;1.25;;;-2.80;99.90;;;;;;4994390;28;20072;-65
2023/11/30 06:34:25;;;;;;;2.45;1.48;;;-2.90;99.90;;;;;;5010486;28;20084;-66
2023/11/30 06:36:51;;;;;;;2.55;1.30;;;-2.80;99.90;;;;;;5103070;23;20061;-66
2023/11/30 06:39:18;;;;;;;3.95;1.70;;;-2.70;99.90;;;;;;5016474;28;20053;-65
2023/11/30 06:41:47;;;;;;;13.35;1.42;;;-2.70;99.90;;;;;;5031568;28;20085;-65
2023/11/30 06:44:13;;;;;;;10.02;1.75;;;-2.70;99.90;;;;;;4996425;28;20411;-66
2023/11/30 06:46:42;;;;;;;1.42;1.23;;;-2.70;99.90;;;;;;5029789;28;20045;-66
2023/11/30 06:49:08;;;;;;;17.67;1.30;;;-2.80;99.90;;;;;;4996535;28;20111;-65
2023/11/30 06:51:34;;;;;;;12.98;1.20;;;-2.70;99.90;;;;;;5013059;28;20041;-65
2023/11/30 06:54:00;;;;;;;5.97;1.17;;;-2.70;99.90;;;;;;5013136;28;20052;-65
2023/11/30 06:56:26;;;;;;;7.72;1.08;;;-2.80;99.90;;;;;;5011960;28;20087;-66
2023/11/30 06:58:51;;;;;;;15.93;1.08;;;-2.70;99.90;;;;;;5029519;28;20402;-65
2023/11/30 07:01:17;;;;;;;13.55;1.10;;;-2.80;99.90;;;;;;5001115;28;20498;-65
2023/11/30 07:03:44;;;;;;;12.27;1.40;;;-2.70;99.90;;;;;;5028777;28;20052;-66
2023/11/30 07:06:10;;;;;;;9.60;1.17;;;-2.80;99.90;;;;;;5039307;28;20052;-66
2023/11/30 07:08:36;;;;;;;1.52;1.38;;;-2.80;99.90;;;;;;5014554;28;20072;-65
2023/11/30 07:11:03;;;;;;;15.30;1.13;;;-2.80;99.90;;;;;;5004327;28;20487;-65
2023/11/30 07:13:29;;;;;;;1.40;1.30;;;-2.70;99.90;;;;;;5011202;28;20065;-66
2023/11/30 07:15:55;;;;;;;3.88;1.35;;;-2.70;99.90;;;;;;5013009;28;20132;-66
2023/11/30 07:18:21;;;;;;;6.47;1.50;;;-2.80;99.90;;;;;;5027151;28;20164;-65
2023/11/30 07:20:46;;;;;;;8.93;1.27;;;-2.80;99.90;;;;;;5030990;28;20045;-66
2023/11/30 07:23:12;;;;;;;13.23;1.73;;;-2.70;99.90;;;;;;5027681;28;20045;-66
2023/11/30 07:25:38;;;;;;;19.35;1.48;;;-2.70;99.90;;;;;;4996132;28;20439;-65
2023/11/30 07:28:04;;;;;;;12.75;1.55;;;-2.80;99.90;;;;;;4993648;28;20049;-66
2023/11/30 07:30:30;;;;;;;1.50;0.90;;;-2.60;99.90;;;;;;5012720;28;20049;-65
2023/11/30 07:32:56;;;;;;;11.75;1.33;;;-2.70;99.90;;;;;;5031237;28;20050;-65
2023/11/30 07:35:22;;;;;;;14.30;2.17;;;-2.70;99.90;;;;;;5030516;28;20429;-65
2023/11/30 07:37:47;;;;;;;1.20;1.10;;;-2.70;99.90;;;;;;5010146;28;20046;-66
2023/11/30 07:40:13;;;;;;;8.75;1.00;;;-2.60;99.90;;;;;;5008931;28;20041;-65
2023/11/30 07:42:39;;;;;;;1.08;1.08;;;-2.50;99.90;;;;;;5009505;28;20050;-66
2023/11/30 07:45:05;;;;;;;12.27;1.40;;;-2.50;99.90;;;;;;5011117;28;20128;-65
2023/11/30 07:47:31;;;;;;;1.08;1.08;;;-2.50;99.90;;;;;;5008116;28;20052;-66
2023/11/30 07:49:57;;;;;;;1.13;1.02;;;-2.50;99.90;;;;;;5007616;28;20492;-65
2023/11/30 07:52:23;;;;;;;4.00;1.33;;;-2.50;99.90;;;;;;5006054;28;20037;-66
2023/11/30 07:54:48;;;;;;;11.95;1.48;;;-2.40;99.90;;;;;;5010904;28;20084;-66
2023/11/30 07:57:16;;;;;;;6.00;1.55;;;-2.40;99.90;;;;;;4996132;28;20191;-66
2023/11/30 07:59:41;;;;;;;5.25;1.35;;;-2.50;99.90;;;;;;4992589;28;20045;-66
2023/11/30 08:02:08;;;;;;;15.18;1.58;;;-2.40;99.90;;;;;;5001308;28;20045;-66
2023/11/30 08:04:35;;;;;;;1.13;1.10;;;-2.50;99.90;;;;;;4974995;28;20041;-66
2023/11/30 08:07:01;;;;;;;10.82;1.67;;;-2.40;99.90;;;;;;5024911;28;20069;-65
2023/11/30 08:09:27;;;;;;;4.38;1.52;;;-2.40;99.90;;;;;;5028752;28;20083;-66
2023/11/30 08:11:52;;;;;;;3.67;1.27;;;-2.30;99.90;;;;;;5007400;28;20060;-66
2023/11/30 08:14:19;;;;;;;2.78;1.63;;;-2.30;99.90;;;;;;5021447;28;20108;-66
2023/11/30 08:16:45;;;;;;;2.25;1.40;;;-2.20;99.90;;;;;;5042316;28;20040;-66
2023/11/30 08:19:10;;;;;;;1.48;1.38;;;-2.10;99.90;;;;;;5014453;28;20526;-66
2023/11/30 08:21:40;;;;;;;1.30;1.30;;;-2.10;99.90;;;;;;5011518;28;20041;-66
2023/11/30 08:24:08;;;;;;;5.13;1.33;;;-2.10;99.90;;;;;;4996118;28;20061;-66
2023/11/30 08:26:34;;;;;;;3.38;1.45;;;-2.10;99.90;;;;;;5009769;28;20087;-66
2023/11/30 08:29:00;;;;;;;1.27;1.27;;;-2.00;99.90;;;;;;5007400;28;20045;-66
2023/11/30 08:31:26;;;;;;;3.50;1.40;;;-2.00;99.90;;;;;;5010295;28;20049;-66
2023/11/30 08:33:52;;;;;;;9.07;1.80;;;-1.90;99.90;;;;;;5005208;28;20056;-66
2023/11/30 08:36:18;;;;;;;11.50;1.60;;;-2.00;99.90;;;;;;4994642;28;20085;-66
2023/11/30 08:38:44;;;;;;;2.53;1.90;;;-1.90;99.90;;;;;;5024863;28;20091;-66
2023/11/30 08:41:10;;;;;;;2.03;1.83;;;-1.80;99.90;;;;;;5006996;28;20473;-66
2023/11/30 08:43:36;;;;;;;5.00;1.55;;;-1.80;99.90;;;;;;4998508;28;20085;-66
2023/11/30 08:46:01;;;;;;;1.48;1.33;;;-1.80;99.90;;;;;;5009855;28;20050;-66
2023/11/30 08:48:27;;;;;;;9.82;2.28;;;-1.70;99.90;;;;;;5014132;28;20048;-66
2023/11/30 08:50:53;;;;;;;2.85;1.80;;;-1.70;99.90;;;;;;4977595;28;20045;-66
2023/11/30 08:53:20;;;;;;;1.08;1.08;;;-1.60;99.90;;;;;;5006813;28;20870;-66
2023/11/30 08:55:46;;;;;;;13.88;2.13;;;-1.60;99.90;;;;;;5035727;28;20045;-66
2023/11/30 08:58:13;;;;;;;4.53;2.00;;;-1.50;99.90;;;;;;5031598;28;20045;-66
2023/11/30 09:00:39;;;;;;;11.32;1.77;;;-1.50;99.90;;;;;;5009480;28;20045;-66
2023/11/30 09:03:06;;;;;;;1.85;1.75;;;-1.50;99.90;;;;;;4992170;28;20049;-66
2023/11/30 09:05:32;;;;;;;2.08;1.98;;;-1.40;99.90;;;;;;5017213;28;20044;-66
2023/11/30 09:07:58;;;;;;;5.28;1.60;;;-1.30;99.90;;;;;;5023275;28;20042;-66
2023/11/30 09:10:23;;;;;;;3.08;1.90;;;-1.30;99.90;;;;;;5006085;28;20049;-66
2023/11/30 09:12:49;;;;;;;5.85;1.70;;;-1.20;99.90;;;;;;5017109;28;20117;-66
2023/11/30 09:15:15;;;;;;;1.30;1.30;;;-1.20;99.90;;;;;;4987778;28;20045;-66
2023/11/30 09:17:41;;;;;;;4.57;1.73;;;-1.20;99.90;;;;;;5010536;28;20044;-66
2023/11/30 09:20:08;;;;;;;7.40;1.65;;;-1.10;99.90;;;;;;5007360;28;20041;-66
2023/11/30 09:22:37;;;;;;;11.50;1.40;;;-1.10;99.90;;;;;;4992328;28;20041;-66
2023/11/30 09:25:04;;;;;;;1.17;0.90;;;-1.10;99.90;;;;;;5034502;28;20514;-66
2023/11/30 09:27:29;;;;;;;1.23;1.10;;;-1.10;99.90;;;;;;5017276;28;20049;-66
2023/11/30 09:29:55;;;;;;;2.78;1.42;;;-1.10;99.90;;;;;;4988137;28;20216;-66
2023/11/30 09:32:22;;;;;;;13.43;1.48;;;-1.00;99.90;;;;;;5013916;28;20045;-66
2023/11/30 09:34:48;;;;;;;4.43;1.30;;;-1.00;99.90;;;;;;5026052;28;20419;-66
2023/11/30 09:37:14;;;;;;;9.68;1.08;;;-1.00;99.90;;;;;;5003982;28;20057;-67
2023/11/30 09:39:40;;;;;;;7.15;1.13;;;-0.90;99.90;;;;;;5009292;28;20048;-66
2023/11/30 09:42:07;;;;;;;2.20;1.45;;;-0.80;99.90;;;;;;5025578;28;20050;-66
2023/11/30 09:44:33;;;;;;;4.47;1.50;;;-0.80;99.90;;;;;;4993885;28;20055;-67
2023/11/30 09:46:59;;;;;;;1.42;1.30;;;-0.60;99.90;;;;;;5009505;28;20042;-66
2023/11/30 09:49:25;;;;;;;4.90;1.63;;;-0.60;99.90;;;;;;5026698;28;20491;-66
2023/11/30 09:51:52;;;;;;;1.85;1.55;;;-0.50;99.90;;;;;;5010902;28;20064;-66
2023/11/30 09:54:19;;;;;;;1.98;1.58;;;-0.50;99.90;;;;;;5004963;28;20049;-67
2023/11/30 09:56:45;;;;;;;1.48;1.30;;;-0.40;99.90;;;;;;5010738;28;20085;-67
2023/11/30 09:59:14;;;;;;;1.50;1.40;;;-0.50;99.90;;;;;;5007433;28;20053;-66
2023/11/30 10:01:40;;;;;;;3.00;1.60;;;-0.40;99.90;;;;;;5008221;28;20045;-66
2023/11/30 10:04:16;;;;;;;1.95;1.73;;;-0.40;99.90;;;;;;5006833;28;20064;-67
2023/11/30 10:06:44;;;;;;;2.42;1.75;;;-0.40;99.90;;;;;;5018964;28;20053;-66
2023/11/30 10:09:13;;;;;;;4.50;1.80;;;-0.40;99.90;;;;;;5008295;28;20056;-66
2023/11/30 10:11:42;;;;;;;6.53;2.33;;;-0.30;99.90;;;;;;5008198;28;20053;-66
2023/11/30 10:14:09;;;;;;;7.00;1.80;;;-0.40;99.90;;;;;;5008235;28;20042;-66
2023/11/30 10:16:36;;;;;;;4.30;1.77;;;-0.40;99.90;;;;;;5013852;28;20045;-66
2023/11/30 10:19:03;;;;;;;1.88;1.73;;;-0.40;99.90;;;;;;5025478;28;20052;-66
2023/11/30 10:21:29;;;;;;;5.30;1.88;;;-0.30;99.90;;;;;;4989928;28;20079;-66
2023/11/30 10:23:57;;;;;;;3.55;2.40;;;-0.40;99.90;;;;;;5022095;28;20073;-66
2023/11/30 10:26:27;;;;;;;3.63;2.42;;;-0.30;99.90;;;;;;5016877;28;20049;-65
2023/11/30 10:28:54;;;;;;;2.55;1.90;;;-0.40;99.90;;;;;;5031711;28;20090;-65
2023/11/30 10:31:23;;;;;;;2.70;2.50;;;-0.30;99.90;;;;;;5026162;28;20513;-66
2023/11/30 10:33:58;;;;;;;5.38;3.08;;;-0.30;99.90;;;;;;5026904;28;20049;-66
2023/11/30 10:36:28;;;;;;;4.18;2.80;;;-0.20;99.90;;;;;;5007038;28;20153;-66
2023/11/30 10:39:11;;;;;;;3.80;2.72;;;-0.10;99.90;;;;;;5029812;28;20111;-66
2023/11/30 10:41:55;;;;;;;4.45;2.47;;;0.10;99.90;;;;;;5001035;28;20115;-66
2023/11/30 10:44:31;;;;;;;10.55;4.20;;;0.10;99.90;;;;;;5002629;28;20064;-66
2023/11/30 10:46:59;;;;;;;19.90;7.35;;;0.10;99.90;;;;;;5023132;28;20049;-66
2023/11/30 10:49:27;;;;;;;8.23;3.75;;;0.00;99.90;;;;;;5003743;28;20162;-66
2023/11/30 10:51:59;;;;;;;6.07;3.67;;;0.00;99.90;;;;;;5025849;28;20049;-66
2023/11/30 10:54:49;;;;;;;6.15;3.85;;;0.00;99.90;;;;;;5026953;28;20050;-66
2023/11/30 10:57:17;;;;;;;9.88;4.18;;;0.00;99.90;;;;;;4996964;28;20054;-66
2023/11/30 10:59:47;;;;;;;8.02;3.38;;;0.00;99.90;;;;;;5008102;28;20048;-66
2023/11/30 11:02:15;;;;;;;17.05;3.25;;;0.10;99.90;;;;;;5010399;28;20140;-66
2023/11/30 11:04:42;;;;;;;7.97;3.78;;;0.10;99.90;;;;;;5019129;28;20561;-66
2023/11/30 11:07:12;;;;;;;11.02;3.85;;;0.20;99.90;;;;;;5017709;28;20041;-66
2023/11/30 11:09:43;;;;;;;5.90;3.05;;;0.20;99.90;;;;;;5019003;28;20046;-66
2023/11/30 11:12:25;;;;;;;9.38;3.85;;;0.10;99.90;;;;;;5001403;28;20042;-66
2023/11/30 11:15:08;;;;;;;10.18;3.58;;;0.10;99.90;;;;;;5015743;28;20061;-66
2023/11/30 11:17:44;;;;;;;6.35;3.30;;;0.10;99.90;;;;;;5008918;28;20103;-66
2023/11/30 11:20:26;;;;;;;4.90;3.10;;;0.00;99.90;;;;;;5009877;28;20474;-66
2023/11/30 11:23:04;;;;;;;4.40;3.10;;;0.00;99.90;;;;;;5011531;28;20431;-66
2023/11/30 11:25:55;;;;;;;6.35;3.45;;;0.00;99.90;;;;;;5006912;28;20045;-66
2023/11/30 11:28:20;;;;;;;5.85;3.10;;;0.00;99.90;;;;;;5003415;28;20454;-66
2023/11/30 11:30:47;;;;;;;11.70;4.25;;;0.00;99.90;;;;;;5016421;28;20097;-66
2023/11/30 11:33:18;;;;;;;8.07;3.25;;;0.10;99.90;;;;;;4992684;28;20054;-66
2023/11/30 11:35:45;;;;;;;4.60;3.80;;;0.10;99.90;;;;;;5012122;28;20045;-66
2023/11/30 11:38:11;;;;;;;5.50;3.72;;;0.10;99.90;;;;;;5012938;28;20057;-66
2023/11/30 11:40:38;;;;;;;5.18;3.42;;;0.20;99.90;;;;;;5028178;28;20485;-66
2023/11/30 11:43:04;;;;;;;8.57;3.78;;;0.10;99.90;;;;;;5027007;28;20484;-66
2023/11/30 11:45:30;;;;;;;6.57;3.70;;;0.20;99.90;;;;;;4994759;28;20052;-66
2023/11/30 11:47:56;;;;;;;5.88;3.80;;;0.20;99.90;;;;;;5028311;28;20406;-66
2023/11/30 11:50:22;;;;;;;5.40;3.67;;;0.20;99.90;;;;;;5010359;28;20052;-66
2023/11/30 11:52:48;;;;;;;4.80;3.45;;;0.30;99.90;;;;;;5027593;28;20041;-67
2023/11/30 11:55:14;;;;;;;6.13;3.33;;;0.30;99.90;;;;;;5010407;28;20423;-66
2023/11/30 11:57:46;;;;;;;4.40;2.92;;;0.30;99.90;;;;;;5009916;28;20041;-66
2023/11/30 12:00:20;;;;;;;6.68;3.67;;;0.30;99.90;;;;;;5010671;28;20124;-66
2023/11/30 12:02:47;;;;;;;14.45;4.40;;;0.30;99.90;;;;;;5006627;28;20061;-66
2023/11/30 12:05:24;;;;;;;5.55;3.70;;;0.40;99.90;;;;;;5031675;28;20123;-66
2023/11/30 12:08:01;;;;;;;8.07;3.88;;;0.30;99.90;;;;;;5009673;28;20053;-66
2023/11/30 12:10:39;;;;;;;6.05;3.95;;;0.40;99.90;;;;;;5025538;28;21038;-66
2023/11/30 12:13:10;;;;;;;6.05;3.85;;;0.40;99.90;;;;;;5015188;28;20037;-66
2023/11/30 12:15:37;;;;;;;6.55;3.30;;;0.40;99.90;;;;;;5009035;28;20124;-66
2023/11/30 12:18:03;;;;;;;6.53;3.67;;;0.40;99.90;;;;;;5001165;28;20084;-66
2023/11/30 12:20:29;;;;;;;5.63;3.47;;;0.50;99.90;;;;;;5009961;28;20060;-66
2023/11/30 12:22:55;;;;;;;12.18;3.42;;;0.50;99.90;;;;;;5010002;28;20037;-66
2023/11/30 12:25:22;;;;;;;12.32;4.50;;;0.50;99.90;;;;;;4993775;28;20120;-66
2023/11/30 12:27:48;;;;;;;6.35;3.95;;;0.60;99.90;;;;;;5011544;28;20049;-66
2023/11/30 12:30:13;;;;;;;9.35;4.43;;;0.60;99.90;;;;;;5009960;28;20037;-66
2023/11/30 12:32:39;;;;;;;6.13;3.95;;;0.60;99.90;;;;;;5010784;28;20050;-66
2023/11/30 12:35:06;;;;;;;7.50;3.85;;;0.60;99.90;;;;;;5005218;28;20567;-67
2023/11/30 12:37:35;;;;;;;7.82;3.75;;;0.60;99.90;;;;;;5017528;28;20142;-67
2023/11/30 12:40:02;;;;;;;6.22;4.10;;;0.60;99.90;;;;;;5013916;28;20129;-67
2023/11/30 12:42:28;;;;;;;6.82;3.92;;;0.60;99.90;;;;;;5009220;28;20053;-67